createdAt,value
2023-03-23T00:02:23.608Z,1.95
2023-03-23T00:04:54.239Z,2.17
2023-03-23T00:07:23.737Z,1.88
2023-03-23T00:09:55.157Z,1.90
2023-03-23T00:12:34.071Z,2.10
2023-03-23T00:15:04.376Z,1.90
2023-03-23T00:17:36.809Z,1.90
2023-03-23T00:20:06.843Z,1.90
2023-03-23T00:22:38.677Z,1.70
2023-03-23T00:25:09.443Z,1.70
2023-03-23T00:27:39.217Z,1.75
2023-03-23T00:30:09.828Z,1.60
2023-03-23T00:32:41.717Z,1.40
2023-03-23T00:35:11.472Z,1.40
2023-03-23T00:37:41.406Z,1.52
2023-03-23T00:40:11.694Z,1.50
2023-03-23T00:42:41.697Z,1.50
2023-03-23T00:45:12.981Z,1.40
2023-03-23T00:47:47.847Z,1.60
2023-03-23T00:50:22.271Z,1.70
2023-03-23T00:52:57.917Z,1.80
2023-03-23T00:55:27.676Z,1.90
2023-03-23T00:57:57.216Z,2.08
2023-03-23T01:00:27.384Z,1.90
2023-03-23T01:02:59.260Z,1.70
2023-03-23T01:05:33.203Z,1.50
2023-03-23T01:08:02.854Z,1.50
2023-03-23T01:10:33.726Z,1.60
2023-03-23T01:13:03.788Z,1.60
2023-03-23T01:15:33.102Z,1.55
2023-03-23T01:18:05.002Z,1.75
2023-03-23T01:20:34.608Z,2.00
2023-03-23T01:23:04.087Z,1.60
2023-03-23T01:25:34.046Z,1.77
2023-03-23T01:28:03.503Z,1.63
2023-03-23T01:30:32.879Z,1.55
2023-03-23T01:33:04.866Z,1.60
2023-03-23T01:35:34.298Z,1.63
2023-03-23T01:38:03.606Z,1.60
2023-03-23T01:40:33.088Z,1.70
2023-03-23T01:43:02.394Z,1.40
2023-03-23T01:45:32.663Z,1.60
2023-03-23T01:48:07.280Z,1.50
2023-03-23T01:50:38.785Z,1.45
2023-03-23T01:53:10.150Z,1.40
2023-03-23T01:58:09.359Z,1.60
2023-03-23T02:00:38.688Z,1.40
2023-03-23T02:03:14.640Z,1.30
2023-03-23T02:05:46.686Z,1.50
2023-03-23T02:08:16.489Z,1.58
2023-03-23T02:10:45.904Z,1.40
2023-03-23T02:13:21.054Z,1.52
2023-03-23T02:15:53.580Z,1.40
2023-03-23T02:18:31.660Z,1.50
2023-03-23T02:21:19.092Z,1.40
2023-03-23T02:24:09.557Z,1.40
2023-03-23T02:26:42.641Z,1.47
2023-03-23T02:29:16.014Z,1.30
2023-03-23T02:31:51.145Z,1.48
2023-03-23T02:34:23.270Z,1.50
2023-03-23T02:36:54.087Z,1.50
2023-03-23T02:39:24.007Z,1.40
2023-03-23T02:41:54.477Z,1.60
2023-03-23T02:44:23.897Z,1.45
2023-03-23T02:46:53.190Z,1.48
2023-03-23T02:49:25.295Z,1.58
2023-03-23T02:51:54.732Z,1.40
2023-03-23T02:54:24.009Z,1.60
2023-03-23T02:56:53.313Z,1.50
2023-03-23T02:59:22.856Z,1.50
2023-03-23T03:02:07.236Z,1.65
2023-03-23T03:04:42.062Z,1.65
2023-03-23T03:07:41.452Z,1.70
2023-03-23T03:10:13.050Z,1.63
2023-03-23T03:12:48.112Z,1.80
2023-03-23T03:15:21.427Z,1.73
2023-03-23T03:17:51.725Z,1.80
2023-03-23T03:20:23.718Z,1.73
2023-03-23T03:22:53.922Z,1.70
2023-03-23T03:25:24.092Z,1.67
2023-03-23T03:27:53.619Z,1.70
2023-03-23T03:30:24.982Z,1.60
2023-03-23T03:32:55.765Z,1.70
2023-03-23T03:35:27.849Z,1.60
2023-03-23T03:37:57.876Z,1.70
2023-03-23T03:40:27.297Z,1.88
2023-03-23T03:42:56.594Z,1.60
2023-03-23T03:45:25.978Z,1.60
2023-03-23T03:47:55.307Z,1.70
2023-03-23T03:50:27.426Z,1.60
2023-03-23T03:52:56.930Z,1.60
2023-03-23T03:55:26.437Z,1.70
2023-03-23T03:57:56.293Z,1.90
2023-03-23T04:00:26.165Z,1.60
2023-03-23T04:02:56.027Z,1.50
2023-03-23T04:05:29.861Z,1.88
2023-03-23T04:08:09.593Z,1.73
2023-03-23T04:10:39.239Z,1.73
2023-03-23T04:13:08.751Z,1.80
2023-03-23T04:15:40.234Z,1.80
2023-03-23T04:18:30.380Z,1.95
2023-03-23T04:21:04.375Z,1.60
2023-03-23T04:23:34.829Z,1.80
2023-03-23T04:26:04.402Z,2.00
2023-03-23T04:28:34.955Z,1.80
2023-03-23T04:31:06.110Z,1.85
2023-03-23T04:33:59.455Z,2.03
2023-03-23T04:36:27.610Z,1.55
2023-03-23T04:39:17.154Z,1.70
2023-03-23T04:41:47.053Z,1.70
2023-03-23T04:44:18.423Z,1.80
2023-03-23T04:46:50.684Z,1.73
2023-03-23T04:49:22.925Z,1.60
2023-03-23T04:51:54.792Z,1.80
2023-03-23T04:54:25.534Z,1.70
2023-03-23T04:56:54.818Z,1.90
2023-03-23T04:59:29.048Z,1.85
2023-03-23T05:02:14.809Z,1.80
2023-03-23T05:04:44.491Z,1.90
2023-03-23T05:07:17.039Z,1.80
2023-03-23T05:09:50.282Z,1.70
2023-03-23T05:12:19.636Z,1.70
2023-03-23T05:14:48.985Z,1.80
2023-03-23T05:17:19.813Z,1.83
2023-03-23T05:19:49.237Z,1.80
2023-03-23T05:22:22.151Z,1.80
2023-03-23T05:24:52.697Z,1.70
2023-03-23T05:27:22.668Z,2.03
2023-03-23T05:29:52.670Z,1.80
2023-03-23T05:32:22.479Z,1.83
2023-03-23T05:34:51.794Z,1.92
2023-03-23T05:37:23.711Z,1.65
2023-03-23T05:39:56.513Z,1.80
2023-03-23T05:42:26.802Z,1.80
2023-03-23T05:44:56.100Z,1.90
2023-03-23T05:47:26.667Z,1.88
2023-03-23T05:49:55.956Z,1.95
2023-03-23T05:52:27.880Z,1.88
2023-03-23T05:54:57.206Z,2.13
2023-03-23T05:57:26.560Z,2.25
2023-03-23T05:59:57.015Z,2.25
2023-03-23T06:02:29.476Z,2.30
2023-03-23T06:04:59.220Z,2.28
2023-03-23T06:07:31.422Z,2.17
2023-03-23T06:10:01.476Z,2.40
2023-03-23T06:12:30.790Z,2.10
2023-03-23T06:15:00.133Z,2.28
2023-03-23T06:17:29.458Z,2.72
2023-03-23T06:19:58.923Z,2.35
2023-03-23T06:22:30.924Z,2.72
2023-03-23T06:25:00.644Z,2.50
2023-03-23T06:27:29.919Z,2.58
2023-03-23T06:29:59.294Z,2.55
2023-03-23T06:32:28.781Z,2.63
2023-03-23T06:34:58.255Z,2.70
2023-03-23T06:37:27.826Z,2.60
2023-03-23T06:39:59.786Z,2.38
2023-03-23T06:42:29.073Z,2.20
2023-03-23T06:44:58.714Z,2.35
2023-03-23T06:47:28.046Z,2.53
2023-03-23T06:49:57.383Z,2.80
2023-03-23T06:52:26.787Z,2.40
2023-03-23T06:54:56.109Z,2.80
2023-03-23T06:57:28.078Z,2.40
2023-03-23T06:59:57.630Z,2.40
2023-03-23T07:02:27.098Z,2.30
2023-03-23T07:04:56.619Z,2.50
2023-03-23T07:07:26.086Z,2.55
2023-03-23T07:09:56.309Z,2.50
2023-03-23T07:12:28.444Z,2.50
2023-03-23T07:14:57.982Z,2.20
2023-03-23T07:17:27.298Z,2.63
2023-03-23T07:19:56.597Z,2.70
2023-03-23T07:22:27.953Z,3.90
2023-03-23T07:24:58.292Z,2.47
2023-03-23T07:27:30.155Z,2.50
2023-03-23T07:29:59.486Z,2.30
2023-03-23T07:32:28.772Z,2.63
2023-03-23T07:34:58.069Z,2.85
2023-03-23T07:37:27.385Z,2.65
2023-03-23T07:39:56.719Z,2.97
2023-03-23T07:42:26.008Z,3.10
2023-03-23T07:44:57.887Z,2.80
2023-03-23T07:47:34.259Z,2.90
2023-03-23T07:50:03.739Z,2.92
2023-03-23T07:52:33.043Z,2.90
2023-03-23T07:55:02.940Z,3.05
2023-03-23T07:57:33.558Z,2.58
2023-03-23T08:00:16.038Z,2.50
2023-03-23T08:02:45.583Z,4.40
2023-03-23T08:05:14.897Z,2.92
2023-03-23T08:07:44.248Z,3.00
2023-03-23T08:10:14.881Z,2.60
2023-03-23T08:12:44.516Z,2.80
2023-03-23T08:15:16.633Z,2.80
2023-03-23T08:17:45.923Z,2.38
2023-03-23T08:20:16.323Z,2.17
2023-03-23T08:22:53.144Z,1.90
2023-03-23T08:25:23.021Z,1.90
2023-03-23T08:27:52.304Z,1.80
2023-03-23T08:30:25.416Z,1.80
2023-03-23T08:32:54.751Z,1.65
2023-03-23T08:35:24.064Z,1.80
2023-03-23T08:37:55.426Z,1.50
2023-03-23T08:40:25.293Z,1.52
2023-03-23T08:43:00.845Z,1.50
2023-03-23T08:45:32.994Z,1.60
2023-03-23T08:48:02.279Z,1.48
2023-03-23T08:50:31.824Z,1.60
2023-03-23T08:53:01.219Z,1.67
2023-03-23T08:55:30.563Z,1.60
2023-03-23T08:57:59.859Z,1.50
2023-03-23T09:00:33.894Z,1.20
2023-03-23T09:03:06.099Z,1.23
2023-03-23T09:05:35.613Z,1.20
2023-03-23T09:08:05.058Z,1.20
2023-03-23T09:10:34.392Z,1.20
2023-03-23T09:13:03.677Z,1.30
2023-03-23T09:15:35.479Z,1.23
2023-03-23T09:18:10.821Z,1.20
2023-03-23T09:20:41.181Z,1.20
2023-03-23T09:23:10.585Z,1.30
2023-03-23T09:25:40.138Z,1.20
2023-03-23T09:28:09.565Z,1.30
2023-03-23T09:30:51.340Z,1.30
2023-03-23T09:33:25.065Z,1.30
2023-03-23T09:35:54.455Z,1.38
2023-03-23T09:38:23.938Z,1.33
2023-03-23T09:40:54.286Z,1.17
2023-03-23T09:43:31.989Z,1.40
2023-03-23T09:46:04.681Z,1.30
2023-03-23T09:48:40.866Z,1.25
2023-03-23T09:51:12.701Z,1.27
2023-03-23T09:53:43.578Z,1.30
2023-03-23T09:56:14.138Z,1.27
2023-03-23T09:58:46.957Z,1.40
2023-03-23T10:01:18.138Z,1.15
2023-03-23T10:03:50.622Z,1.23
2023-03-23T10:06:20.965Z,1.10
2023-03-23T10:08:57.454Z,1.50
2023-03-23T10:11:28.755Z,1.35
2023-03-23T10:14:02.539Z,1.30
2023-03-23T10:16:32.645Z,1.42
2023-03-23T10:19:05.639Z,1.10
2023-03-23T10:21:34.996Z,1.17
2023-03-23T10:24:04.705Z,1.30
2023-03-23T10:26:38.372Z,1.30
2023-03-23T10:29:14.461Z,1.13
2023-03-23T10:31:45.397Z,1.30
2023-03-23T10:34:17.990Z,1.20
2023-03-23T10:36:54.731Z,1.25
2023-03-23T10:39:24.995Z,1.20
2023-03-23T10:41:54.561Z,1.13
2023-03-23T10:44:26.302Z,1.10
2023-03-23T10:46:57.712Z,1.10
2023-03-23T10:49:30.062Z,1.10
2023-03-23T10:52:01.681Z,1.00
2023-03-23T10:54:31.823Z,0.90
2023-03-23T10:57:03.439Z,0.97
2023-03-23T10:59:34.669Z,0.90
2023-03-23T11:02:04.505Z,1.05
2023-03-23T11:04:36.653Z,1.70
2023-03-23T11:07:06.638Z,1.70
2023-03-23T11:09:39.291Z,1.42
2023-03-23T11:12:08.755Z,1.02
2023-03-23T11:14:40.222Z,1.10
2023-03-23T11:17:22.531Z,1.13
2023-03-23T11:19:55.440Z,1.17
2023-03-23T11:22:27.489Z,0.82
2023-03-23T11:24:57.168Z,1.00
2023-03-23T11:27:27.432Z,1.10
2023-03-23T11:29:58.680Z,0.93
2023-03-23T11:32:28.921Z,0.88
2023-03-23T11:35:13.834Z,1.00
2023-03-23T11:37:46.391Z,0.80
2023-03-23T11:40:19.481Z,1.10
2023-03-23T11:42:49.453Z,1.15
2023-03-23T11:45:20.987Z,1.10
2023-03-23T11:48:07.990Z,1.10
2023-03-23T11:50:41.490Z,1.10
2023-03-23T11:53:13.087Z,0.70
2023-03-23T11:55:56.355Z,1.00
2023-03-23T11:58:26.147Z,1.20
2023-03-23T12:00:57.460Z,0.93
2023-03-23T12:03:27.892Z,1.20
2023-03-23T12:06:01.703Z,1.20
2023-03-23T12:08:34.974Z,1.30
2023-03-23T12:11:07.204Z,1.35
2023-03-23T12:13:58.663Z,1.45
2023-03-23T12:16:31.382Z,1.40
2023-03-23T12:19:04.084Z,1.40
2023-03-23T12:21:38.417Z,1.50
2023-03-23T12:24:09.507Z,1.38
2023-03-23T12:26:39.788Z,1.42
2023-03-23T12:29:25.051Z,1.20
2023-03-23T12:31:58.682Z,1.33
2023-03-23T12:34:30.859Z,1.30
2023-03-23T12:37:07.985Z,1.20
2023-03-23T12:39:45.008Z,1.10
2023-03-23T12:42:16.462Z,1.20
2023-03-23T12:44:51.949Z,1.38
2023-03-23T12:47:25.738Z,1.40
2023-03-23T12:49:57.181Z,1.20
2023-03-23T12:52:30.528Z,1.15
2023-03-23T12:55:02.177Z,1.10
2023-03-23T12:57:33.926Z,1.20
2023-03-23T13:00:06.893Z,1.20
2023-03-23T13:02:37.645Z,1.27
2023-03-23T13:05:09.201Z,1.40
2023-03-23T13:07:46.012Z,1.30
2023-03-23T13:10:16.913Z,1.20
2023-03-23T13:12:46.224Z,1.27
2023-03-23T13:15:22.605Z,1.30
2023-03-23T13:17:53.203Z,1.30
2023-03-23T13:20:27.372Z,1.20
2023-03-23T13:23:00.538Z,1.30
2023-03-23T13:25:36.919Z,1.50
2023-03-23T13:28:06.499Z,1.70
2023-03-23T13:30:35.772Z,1.20
2023-03-23T13:33:05.812Z,1.52
2023-03-23T13:35:37.684Z,1.50
2023-03-23T13:38:16.088Z,1.33
2023-03-23T13:40:46.096Z,1.45
2023-03-23T13:43:16.063Z,1.35
2023-03-23T13:45:48.718Z,1.15
2023-03-23T13:48:22.490Z,1.10
2023-03-23T13:50:56.053Z,1.33
2023-03-23T13:53:33.292Z,1.48
2023-03-23T13:56:17.049Z,1.60
2023-03-23T13:58:50.931Z,1.70
2023-03-23T14:01:20.868Z,1.48
2023-03-23T14:03:52.113Z,1.50
2023-03-23T14:06:23.153Z,1.40
2023-03-23T14:11:26.666Z,1.67
2023-03-23T14:14:03.829Z,1.30
2023-03-23T14:16:35.718Z,1.40
2023-03-23T14:19:06.256Z,1.40
2023-03-23T14:21:36.980Z,1.60
2023-03-23T14:24:06.771Z,1.50
2023-03-23T14:26:39.818Z,1.70
2023-03-23T14:29:09.417Z,1.80
2023-03-23T14:31:38.931Z,1.40
2023-03-23T14:34:08.807Z,1.98
2023-03-23T14:36:38.577Z,2.20
2023-03-23T14:39:09.619Z,1.80
2023-03-23T14:44:11.477Z,1.70
2023-03-23T14:46:40.781Z,1.60
2023-03-23T14:49:10.069Z,1.80
2023-03-23T14:51:39.363Z,1.92
2023-03-23T14:54:11.925Z,1.70
2023-03-23T14:56:41.256Z,1.70
2023-03-23T14:59:13.661Z,1.80
2023-03-23T15:01:43.201Z,1.98
2023-03-23T15:04:14.836Z,1.88
2023-03-23T15:06:44.916Z,1.90
2023-03-23T15:09:15.678Z,1.80
2023-03-23T15:11:45.082Z,1.80
2023-03-23T15:14:17.939Z,1.65
2023-03-23T15:16:49.396Z,1.70
2023-03-23T15:19:20.433Z,1.50
2023-03-23T15:24:23.862Z,1.63
2023-03-23T15:26:54.659Z,1.80
2023-03-23T15:29:26.847Z,1.88
2023-03-23T15:31:57.008Z,1.45
2023-03-23T15:34:31.978Z,1.63
2023-03-23T15:37:06.457Z,1.65
2023-03-23T15:39:44.264Z,1.70
2023-03-23T15:42:23.335Z,1.73
2023-03-23T15:45:09.470Z,1.70
2023-03-23T15:47:39.984Z,1.60
2023-03-23T15:50:12.874Z,1.48
2023-03-23T15:52:42.169Z,1.63
2023-03-23T15:55:22.585Z,1.70
2023-03-23T15:57:52.549Z,1.92
2023-03-23T16:00:26.158Z,1.60
2023-03-23T16:02:56.876Z,1.85
2023-03-23T16:05:26.286Z,1.80
2023-03-23T16:07:55.985Z,1.58
2023-03-23T16:10:25.939Z,1.80
2023-03-23T16:12:55.534Z,1.65
2023-03-23T16:15:27.558Z,1.90
2023-03-23T16:17:56.862Z,1.50
2023-03-23T16:20:26.347Z,1.70
2023-03-23T16:22:55.670Z,1.60
